Disclaimer

Please do not use the information listed here in-flight or in-navigation, as they are not provided to us by the airports but are provided by volunteers, so they might be outdated.

Search


Regions


Airport information page

Radio informations:
Tower (TWR) - 124.6 MHz
Ground (GND) - 119.45 MHz
RADAR - 129.4 MHz

Airport informations:
Latitude: 25° 06' 44.01" N
Longitude: 056° 19' 26.27" E
Elevation: 152 feet - 46 meters
Operating hours: 24 hour operations
Operating agency: Civil government, landing fees and diplomatic clearance may be required
Timezone: UTC+4
Fuel: N/A

Runway information:
11/29 - 12303 x 148 feet< - >3750 x 45 meters

Recent METARs:
OMFJ 211100Z 30018KT 8000 FEW025 30/13 Q1014 A2994
OMFJ 211200Z 27012G22KT 8000 FEW025 30/12 Q1014 A2995
OMFJ 211200Z 27012G22KT 230V310 8000 FEW025 30/12 Q1014 RMK A2995

Airport on the map: